Time;durP1;ratioP1;P1;durP2;ratioP2;P2;SDS_P1;SDS_P2;PMS_P1;PMS_P2;Temp;Humidity;BMP_temperature;BMP_pressure;BME280_temperature;BME280_humidity;BME280_pressure;Samples;Min_cycle;Max_cycle;Signal;HPM_P1;HPM_P2
2022/02/01 00:01:39;;;;;;;49.05;17.45;;;;;;;-0.28;100.00;99981.05;4992204;58;1141135;-69
2022/02/01 00:06:56;;;;;;;43.73;17.27;;;;;;;-0.28;100.00;99982.34;4998282;58;1141164;-71
2022/02/01 00:12:07;;;;;;;47.30;14.13;;;;;;;-0.48;100.00;99994.88;4997544;58;1141110;-70
2022/02/01 00:38:32;;;;;;;47.13;13.97;;;;;;;-0.94;100.00;100007.09;4999085;58;1143170;-70
2022/02/01 00:43:28;;;;;;;32.67;11.57;;;;;;;-0.94;100.00;100020.53;4997879;58;1142878;-71
2022/02/01 00:48:34;;;;;;;35.73;13.20;;;;;;;-0.94;100.00;100040.84;4994798;58;1143275;-70
2022/02/01 00:53:42;;;;;;;26.30;10.17;;;;;;;-0.90;100.00;100043.69;4989968;58;1143695;-68
2022/02/01 00:58:49;;;;;;;28.63;11.70;;;;;;;-0.90;100.00;100054.07;4991248;58;1140784;-70
2022/02/01 01:03:54;;;;;;;32.37;9.70;;;;;;;-0.91;100.00;100054.97;4988478;58;1141521;-70
2022/02/01 01:09:02;;;;;;;23.27;8.83;;;;;;;-0.87;100.00;100059.16;4988569;58;1139134;-69
2022/02/01 01:56:42;;;;;;;21.85;8.60;;;;;;;-0.71;100.00;100068.50;4988548;58;1141831;-68
2022/02/01 02:01:48;;;;;;;22.55;7.45;;;;;;;-0.83;100.00;100066.38;4990638;58;1141195;-68
2022/02/01 02:06:54;;;;;;;25.70;8.00;;;;;;;-0.90;100.00;100055.82;4998713;58;1140801;-70
2022/02/01 02:12:14;;;;;;;27.20;8.23;;;;;;;-0.89;100.00;100065.30;4999100;58;1141251;-71
2022/02/01 02:17:14;;;;;;;24.70;8.23;;;;;;;-0.89;100.00;100062.70;4998370;58;1141203;-69
2022/02/01 02:22:22;;;;;;;25.63;8.00;;;;;;;-0.91;100.00;100056.27;4998631;58;1141136;-69
2022/02/01 02:27:28;;;;;;;17.90;6.53;;;;;;;-0.90;100.00;100051.92;4998830;58;1141300;-70
2022/02/01 02:32:33;;;;;;;22.30;6.85;;;;;;;-0.95;100.00;100039.59;4998745;58;1141203;-69
2022/02/01 02:37:42;;;;;;;24.03;6.87;;;;;;;-0.92;100.00;100040.78;4998587;58;1141510;-68
2022/02/01 02:48:12;;;;;;;22.22;5.67;;;;;;;-0.99;100.00;100051.84;4998836;58;1141175;-69
2022/02/01 02:53:18;;;;;;;21.23;7.27;;;;;;;-0.99;100.00;100049.69;4998625;58;1141287;-70
2022/02/01 02:58:24;;;;;;;22.33;7.63;;;;;;;-1.01;100.00;100056.23;5044901;58;1140966;-70
2022/02/01 03:03:30;;;;;;;29.00;8.23;;;;;;;-1.04;100.00;100060.69;5053180;58;1141084;-70
2022/02/01 03:08:36;;;;;;;21.20;9.03;;;;;;;-1.07;100.00;100054.70;5052929;58;1141188;-69
2022/02/01 03:13:48;;;;;;;21.23;8.13;;;;;;;-1.05;100.00;100055.95;5053061;58;1140677;-67
2022/02/01 03:24:13;;;;;;;19.70;7.83;;;;;;;-1.04;100.00;100051.61;5052099;58;1141116;-71
2022/02/01 03:29:19;;;;;;;17.77;7.37;;;;;;;-1.12;100.00;100044.97;5134470;57;1139030;-69
2022/02/01 03:34:24;;;;;;;20.70;6.27;;;;;;;-1.06;100.00;100062.89;5134736;57;1138515;-69
2022/02/01 03:39:30;;;;;;;31.27;8.23;;;;;;;-1.05;100.00;100062.44;5135199;57;1139421;-68
2022/02/01 03:44:36;;;;;;;20.23;8.53;;;;;;;-1.03;100.00;100055.45;5131265;57;1139079;-70
2022/02/01 03:49:44;;;;;;;18.93;5.50;;;;;;;-1.00;100.00;100041.52;5136179;57;1138913;-69
2022/02/01 03:54:49;;;;;;;27.43;9.40;;;;;;;-0.98;100.00;100044.45;5136230;57;1139561;-70
2022/02/01 03:59:55;;;;;;;23.97;9.10;;;;;;;-0.96;100.00;100050.43;5136008;57;1139061;-70
2022/02/01 04:05:01;;;;;;;27.37;10.43;;;;;;;-0.95;100.00;100041.74;5136180;57;1139101;-71
2022/02/01 04:10:08;;;;;;;24.07;7.60;;;;;;;-0.91;100.00;100036.80;5135833;57;1141283;-71
2022/02/01 04:15:13;;;;;;;25.27;7.53;;;;;;;-0.89;100.00;100035.45;5129330;57;1138869;-70
2022/02/01 04:20:19;;;;;;;24.73;9.67;;;;;;;-0.91;100.00;100038.55;5124942;57;1139434;-70
2022/02/01 04:25:27;;;;;;;30.67;9.33;;;;;;;-0.94;100.00;100034.35;5100345;57;1139004;-69
2022/02/01 04:30:32;;;;;;;32.27;11.20;;;;;;;-0.96;100.00;100040.50;5095271;58;1139138;-69
2022/02/01 04:35:40;;;;;;;31.97;9.20;;;;;;;-1.00;100.00;100046.70;5105931;57;1141482;-70
2022/02/01 04:40:52;;;;;;;22.03;9.13;;;;;;;-1.00;100.00;100043.66;5105858;58;1139511;-68
2022/02/01 04:45:55;;;;;;;26.77;11.07;;;;;;;-0.97;100.00;100046.59;5105590;57;1139274;-71
2022/02/01 04:51:00;;;;;;;29.53;9.50;;;;;;;-0.93;100.00;100036.50;5105678;58;1141134;-71
2022/02/01 04:56:07;;;;;;;25.90;9.60;;;;;;;-0.92;100.00;100031.25;5083571;57;1136734;-69
2022/02/01 05:01:14;;;;;;;20.77;9.10;;;;;;;-0.89;100.00;100017.28;5125795;57;1137320;-70
2022/02/01 05:06:22;;;;;;;23.13;10.73;;;;;;;-0.89;100.00;100014.69;5128578;57;1140983;-69
2022/02/01 05:11:28;;;;;;;21.67;8.63;;;;;;;-0.94;100.00;100007.55;5122180;57;1143259;-70
2022/02/01 05:16:57;;;;;;;23.17;10.07;;;;;;;-0.97;100.00;99993.39;5125621;57;1141111;-69
2022/02/01 05:21:53;;;;;;;27.73;11.03;;;;;;;-0.99;100.00;99994.73;5118030;57;1141126;-71
2022/02/01 05:27:01;;;;;;;23.13;8.50;;;;;;;-0.99;100.00;100001.68;5072209;57;1140859;-69
2022/02/01 05:32:25;;;;;;;22.23;8.87;;;;;;;-1.01;100.00;100004.33;5072344;57;1141012;-69
2022/02/01 05:37:30;;;;;;;35.65;9.95;;;;;;;-0.98;100.00;100009.41;5072696;57;1141216;-70
2022/02/01 05:42:44;;;;;;;41.67;15.03;;;;;;;-0.97;100.00;100007.20;5072547;56;1141129;-70
2022/02/01 05:47:44;;;;;;;55.53;20.00;;;;;;;-0.94;100.00;100003.20;5051022;57;1143369;-69
2022/02/01 05:52:50;;;;;;;42.57;14.60;;;;;;;-0.91;100.00;99995.72;5061347;57;1143340;-71
2022/02/01 05:57:56;;;;;;;38.07;13.53;;;;;;;-0.87;100.00;100015.02;5087320;57;1140989;-71
2022/02/01 06:03:01;;;;;;;25.07;10.90;;;;;;;-0.82;100.00;100013.55;5100163;56;1143180;-70
2022/02/01 06:08:07;;;;;;;38.13;12.13;;;;;;;-0.79;100.00;100019.93;5020490;57;1143273;-70
2022/02/01 06:13:13;;;;;;;35.30;11.57;;;;;;;-0.75;100.00;100019.73;4902200;59;1143281;-70
2022/02/01 06:18:19;;;;;;;33.93;12.27;;;;;;;-0.69;100.00;100024.30;4925502;59;1143216;-68
2022/02/01 06:23:25;;;;;;;47.70;13.97;;;;;;;-0.68;100.00;100030.73;5036342;56;1143144;-72
2022/02/01 06:28:31;;;;;;;35.53;10.97;;;;;;;-0.63;100.00;100030.11;4983485;57;1143232;-72
2022/02/01 06:33:37;;;;;;;36.17;12.97;;;;;;;-0.58;100.00;100028.60;4965551;58;1143505;-70
2022/02/01 06:38:42;;;;;;;39.50;15.57;;;;;;;-0.56;100.00;100018.55;4996261;58;1143457;-71
2022/02/01 06:43:49;;;;;;;39.93;13.30;;;;;;;-0.53;100.00;100017.14;5039092;57;1143275;-71
2022/02/01 06:48:56;;;;;;;41.80;15.07;;;;;;;-0.49;100.00;100021.77;4991442;58;1143457;-70
2022/02/01 06:54:04;;;;;;;44.17;12.40;;;;;;;-0.47;100.00;100013.46;5041649;58;1143177;-70
2022/02/01 06:59:09;;;;;;;44.00;13.83;;;;;;;-0.46;100.00;100002.16;5040696;57;1143510;-71
2022/02/01 07:04:16;;;;;;;40.57;11.20;;;;;;;-0.42;100.00;100008.91;5008971;57;1143211;-72
2022/02/01 07:09:22;;;;;;;37.57;14.00;;;;;;;-0.39;100.00;100013.52;4981400;59;1143208;-68
2022/02/01 07:14:28;;;;;;;30.33;11.00;;;;;;;-0.33;100.00;100007.70;4896354;60;1143156;-78
2022/02/01 07:19:34;;;;;;;43.50;14.87;;;;;;;-0.29;100.00;100004.04;5014802;58;1143309;-71
2022/02/01 07:24:52;;;;;;;40.77;15.77;;;;;;;-0.26;100.00;100005.22;5066138;57;1143191;-70
2022/02/01 07:29:47;;;;;;;42.53;19.13;;;;;;;-0.22;100.00;99997.70;5113529;57;1143091;-72
2022/02/01 07:34:52;;;;;;;50.23;29.23;;;;;;;-0.22;100.00;99993.80;5140057;56;1141220;-70
2022/02/01 07:39:58;;;;;;;71.87;46.63;;;;;;;-0.18;100.00;99974.12;5136115;57;1141072;-68
2022/02/01 07:45:10;;;;;;;37.27;13.17;;;;;;;-0.18;100.00;99974.12;5134976;57;1141158;-69
2022/02/01 07:50:15;;;;;;;170.90;97.20;;;;;;;-0.15;100.00;99960.97;5110139;57;1139008;-73
2022/02/01 07:55:21;;;;;;;61.53;32.50;;;;;;;-0.10;100.00;99966.83;5097216;57;1141085;-73
2022/02/01 08:00:28;;;;;;;38.70;13.00;;;;;;;-0.07;100.00;99958.06;5116822;56;1138972;-72
2022/02/01 08:05:34;;;;;;;35.13;13.27;;;;;;;0.05;100.00;99962.72;4971125;58;1139079;-70
2022/02/01 08:10:46;;;;;;;37.90;13.30;;;;;;;0.05;100.00;99962.72;5077767;57;1136943;-70
2022/02/01 08:21:22;;;;;;;56.48;17.17;;;;;;;0.10;100.00;99954.73;5116362;57;1136984;-70
2022/02/01 08:26:21;;;;;;;30.65;12.40;;;;;;;0.09;100.00;99949.98;4970122;57;1137135;-74
2022/02/01 08:31:27;;;;;;;48.13;15.83;;;;;;;0.11;100.00;99958.57;4971578;58;1136762;-70
2022/02/01 08:36:33;;;;;;;36.23;11.90;;;;;;;0.13;100.00;99951.55;4971342;58;1136941;-73
2022/02/01 08:41:38;;;;;;;32.67;10.50;;;;;;;0.14;100.00;99942.84;5117339;57;1136923;-66
2022/02/01 08:46:45;;;;;;;41.03;10.93;;;;;;;0.18;100.00;99935.27;5047280;57;1137040;-70
2022/02/01 08:51:59;;;;;;;29.42;12.82;;;;;;;0.18;100.00;99935.27;5066772;57;1137010;-67
2022/02/01 08:57:29;;;;;;;27.77;11.00;;;;;;;0.19;100.00;99929.62;5063584;57;1134767;-69
2022/02/01 09:02:14;;;;;;;29.13;9.20;;;;;;;0.21;100.00;99928.64;5054880;57;1139258;-68
2022/02/01 09:07:20;;;;;;;12.60;7.03;;;;;;;0.27;100.00;99921.88;5115706;57;1137202;-70
2022/02/01 09:12:26;;;;;;;30.90;9.30;;;;;;;0.29;100.00;99919.21;5116439;56;1137201;-70
2022/02/01 09:17:32;;;;;;;25.60;7.30;;;;;;;0.29;100.00;99912.70;5125657;56;1136904;-69
2022/02/01 09:22:38;;;;;;;21.53;8.00;;;;;;;0.30;100.00;99906.14;5109581;57;1136675;-67
2022/02/01 09:27:44;;;;;;;31.87;10.17;;;;;;;0.34;100.00;99905.52;5064813;57;1137020;-67
2022/02/01 09:32:50;;;;;;;29.33;12.17;;;;;;;0.35;100.00;99895.50;5122223;56;1139083;-68
2022/02/01 09:37:56;;;;;;;25.03;9.83;;;;;;;0.37;100.00;99878.53;5123325;56;1138943;-67
2022/02/01 09:43:02;;;;;;;31.33;9.17;;;;;;;0.37;100.00;99874.17;5118694;56;1137384;-72
2022/02/01 09:48:09;;;;;;;25.77;7.33;;;;;;;0.39;100.00;99875.41;5124385;56;1137062;-69
2022/02/01 09:53:15;;;;;;;15.80;6.77;;;;;;;0.41;100.00;99871.83;5122574;56;1136683;-69
2022/02/01 09:58:33;;;;;;;14.40;5.97;;;;;;;0.38;100.00;99871.12;5117706;56;1137030;-68
2022/02/01 10:03:39;;;;;;;12.40;5.80;;;;;;;0.38;100.00;99870.66;5116074;56;1136939;-67
2022/02/01 10:08:47;;;;;;;10.67;6.13;;;;;;;0.37;100.00;99858.56;5124721;57;1136977;-69
2022/02/01 10:13:57;;;;;;;11.95;6.15;;;;;;;0.38;100.00;99845.95;5124213;56;1136868;-67
2022/02/01 10:19:10;;;;;;;17.37;7.83;;;;;;;0.34;100.00;99843.94;5118465;56;1137505;-68
2022/02/01 10:24:18;;;;;;;17.27;7.30;;;;;;;0.32;100.00;99835.36;5111646;57;1136954;-69
2022/02/01 10:29:23;;;;;;;11.03;6.50;;;;;;;0.34;100.00;99829.64;5121442;57;1136794;-70
2022/02/01 10:34:41;;;;;;;9.30;4.80;;;;;;;0.34;100.00;99828.34;5123078;57;1137168;-68
2022/02/01 10:39:37;;;;;;;18.77;6.63;;;;;;;0.38;100.00;99819.09;5121712;57;1134699;-70
2022/02/01 10:44:58;;;;;;;18.90;6.53;;;;;;;0.43;100.00;99809.33;5111331;57;1137019;-69
2022/02/01 10:50:12;;;;;;;13.33;7.53;;;;;;;0.47;100.00;99783.08;5110311;57;1136981;-67
2022/02/01 10:55:20;;;;;;;19.03;8.50;;;;;;;0.51;100.00;99772.91;5110339;57;1137356;-68
2022/02/01 11:00:26;;;;;;;15.50;7.05;;;;;;;0.60;100.00;99759.48;5119765;57;1136962;-66
2022/02/01 11:05:32;;;;;;;18.10;6.60;;;;;;;0.68;100.00;99747.38;5118646;57;1137007;-67
2022/02/01 11:10:38;;;;;;;14.00;5.33;;;;;;;0.76;100.00;99742.65;5118578;57;1136976;-70
2022/02/01 11:16:05;;;;;;;11.90;6.07;;;;;;;0.82;100.00;99731.07;5088627;57;1137095;-70
2022/02/01 11:21:13;;;;;;;20.80;7.80;;;;;;;0.87;100.00;99736.89;5117730;57;1135210;-66
2022/02/01 11:26:50;;;;;;;16.60;6.43;;;;;;;0.88;100.00;99734.22;5121039;56;1134894;-68
2022/02/01 11:31:49;;;;;;;19.77;7.20;;;;;;;0.98;100.00;99735.43;5133732;56;1135201;-69
2022/02/01 11:37:10;;;;;;;11.67;7.53;;;;;;;1.07;100.00;99731.98;5143853;56;1135020;-70
2022/02/01 11:42:18;;;;;;;18.03;5.93;;;;;;;1.12;100.00;99728.20;5139035;56;1134910;-70
2022/02/01 11:47:37;;;;;;;14.87;6.33;;;;;;;1.11;100.00;99731.73;5143714;56;1134883;-67
2022/02/01 11:52:50;;;;;;;12.98;6.62;;;;;;;1.11;100.00;99723.92;5153104;56;1136887;-69
2022/02/01 11:58:01;;;;;;;;;;;;;;;1.11;100.00;99710.90;5063714;56;1136898;-68
2022/02/01 12:03:09;;;;;;;23.07;7.90;;;;;;;1.14;100.00;99704.70;5144839;57;972206;-68
2022/02/01 12:08:17;;;;;;;16.27;6.83;;;;;;;1.17;100.00;99690.22;5133885;56;1134799;-71
2022/02/01 12:13:25;;;;;;;13.63;5.33;;;;;;;1.17;100.00;99679.80;5122930;56;1136784;-67
2022/02/01 12:18:44;;;;;;;16.87;7.60;;;;;;;1.13;100.00;99663.48;5021802;57;1136986;-72
2022/02/01 12:23:52;;;;;;;14.43;6.53;;;;;;;1.16;100.00;99669.84;5070124;56;1136942;-69
2022/02/01 12:29:03;;;;;;;24.70;8.17;;;;;;;1.20;100.00;99659.66;5066837;58;1137206;-70
2022/02/01 12:34:12;;;;;;;13.53;5.80;;;;;;;1.23;100.00;99656.02;5067706;57;1136986;-69
2022/02/01 12:39:43;;;;;;;22.67;7.93;;;;;;;1.24;100.00;99644.69;5047400;58;1137035;-70
2022/02/01 12:49:49;;;;;;;15.03;5.87;;;;;;;1.29;100.00;99607.52;5070325;56;1136971;-68
2022/02/01 12:55:13;;;;;;;16.43;6.73;;;;;;;1.30;100.00;99595.72;5070061;58;1137118;-70
2022/02/01 13:00:23;;;;;;;37.20;8.00;;;;;;;1.36;100.00;99587.58;5069747;57;1136931;-70
2022/02/01 13:05:30;;;;;;;14.83;5.03;;;;;;;1.38;100.00;99567.94;5107258;57;1137213;-68
2022/02/01 13:21:25;;;;;;;18.63;4.63;;;;;;;1.60;100.00;99542.84;5095339;57;1136754;-69
2022/02/01 13:26:35;;;;;;;18.20;5.10;;;;;;;1.71;100.00;99534.78;5059000;57;1134854;-68
2022/02/01 13:31:51;;;;;;;19.47;6.10;;;;;;;1.88;100.00;99528.60;5061369;56;1134959;-67
2022/02/01 13:37:02;;;;;;;21.50;5.60;;;;;;;1.86;100.00;99516.58;5028263;57;1134808;-67
2022/02/01 13:42:11;;;;;;;17.13;5.80;;;;;;;1.97;100.00;99510.30;5070449;57;1134886;-69
2022/02/01 13:47:17;;;;;;;26.47;6.07;;;;;;;1.96;100.00;99488.59;5078499;57;1134858;-69
2022/02/01 13:52:23;;;;;;;12.27;4.47;;;;;;;1.91;100.00;99476.75;5080035;57;1135171;-70
2022/02/01 13:57:31;;;;;;;16.33;5.03;;;;;;;1.90;100.00;99477.67;5102899;57;1134866;-69
2022/02/01 14:02:43;;;;;;;13.37;5.17;;;;;;;1.88;100.00;99448.24;5121268;57;1134872;-70
2022/02/01 14:08:18;;;;;;;30.50;8.50;;;;;;;1.87;100.00;99436.14;5120940;57;1134838;-70
2022/02/01 14:13:53;;;;;;;16.57;5.97;;;;;;;1.89;100.00;99413.42;5119703;57;1132974;-70
2022/02/01 14:29:08;;;;;;;23.17;4.90;;;;;;;1.83;100.00;99355.16;5123175;56;1136947;-69
2022/02/01 14:34:23;;;;;;;22.77;7.00;;;;;;;1.85;100.00;99346.75;5123268;56;1136793;-67
2022/02/01 14:49:50;;;;;;;99.13;44.37;;;;;;;1.81;100.00;99309.63;4958679;58;1138840;-67
2022/02/01 14:55:04;;;;;;;108.95;46.13;;;;;;;1.77;100.00;99297.70;4976154;58;1139166;-70
2022/02/01 15:16:25;;;;;;;39.80;12.97;;;;;;;1.64;100.00;99245.96;5125646;56;1139302;-80
2022/02/01 15:21:31;;;;;;;53.80;13.63;;;;;;;1.58;100.00;99231.99;5127490;56;1138930;-68
2022/02/01 15:26:37;;;;;;;82.80;30.00;;;;;;;1.53;100.00;99212.72;5125863;56;1139393;-70
2022/02/01 15:31:42;;;;;;;107.80;47.50;;;;;;;1.45;100.00;99201.95;5125747;56;1139028;-71
2022/02/01 15:36:48;;;;;;;42.93;16.53;;;;;;;1.39;100.00;99180.17;5126796;56;1139289;-68
2022/02/01 15:58:05;;;;;;;30.68;8.55;;;;;;;1.26;100.00;99113.68;5101130;57;1136870;-68
2022/02/01 16:03:19;;;;;;;43.10;12.13;;;;;;;1.27;100.00;99092.38;5126549;57;1134899;-70
2022/02/01 16:08:27;;;;;;;51.60;17.63;;;;;;;1.26;100.00;99081.13;5125840;56;1136967;-67
2022/02/01 16:13:42;;;;;;;85.00;30.50;;;;;;;1.25;100.00;99075.55;5125326;57;1134938;-67
2022/02/01 16:18:38;;;;;;;41.67;18.63;;;;;;;1.20;100.00;99058.55;5142791;57;21582;-70
2022/02/01 16:23:44;;;;;;;44.18;17.73;;;;;;;1.16;100.00;99044.05;5125360;57;1134835;-68
2022/02/01 16:28:49;;;;;;;88.30;29.70;;;;;;;1.10;100.00;99024.89;5125977;57;1139229;-69
2022/02/01 16:33:56;;;;;;;149.10;45.63;;;;;;;1.04;100.00;99019.16;5125846;57;1139055;-71
2022/02/01 16:39:05;;;;;;;301.93;77.83;;;;;;;0.99;100.00;98984.77;5125173;57;1141201;-68
2022/02/01 16:44:11;;;;;;;363.37;92.00;;;;;;;0.95;100.00;98983.73;5125535;57;1141128;-68
2022/02/01 16:49:17;;;;;;;142.47;43.53;;;;;;;0.86;100.00;98955.23;5113869;57;1141194;-68
2022/02/01 16:54:35;;;;;;;166.75;48.60;;;;;;;0.85;100.00;98947.52;5113052;57;1141324;-69
2022/02/01 16:59:30;;;;;;;181.20;51.33;;;;;;;0.81;100.00;98925.22;5124696;57;1141363;-74
2022/02/01 17:04:38;;;;;;;99.20;41.50;;;;;;;0.78;100.00;98907.19;5121056;57;1141372;-68
2022/02/01 17:09:43;;;;;;;59.57;18.70;;;;;;;0.77;100.00;98893.81;5121313;56;1139025;-71
2022/02/01 17:25:18;;;;;;;54.50;20.97;;;;;;;0.72;100.00;98821.73;5114913;57;1139126;-75
2022/02/01 17:30:24;;;;;;;59.70;27.03;;;;;;;0.69;100.00;98790.24;5116662;56;1138952;-80
2022/02/01 17:35:30;;;;;;;30.20;15.37;;;;;;;0.66;100.00;98763.12;5127838;55;1139019;-79
2022/02/01 17:40:36;;;;;;;21.00;10.63;;;;;;;0.61;100.00;98756.10;5118080;56;1139131;-73
2022/02/01 17:45:47;;;;;;;15.60;8.50;;;;;;;0.64;100.00;98715.55;5115243;56;1138933;-68
2022/02/01 17:55:59;;;;;;;14.67;6.37;;;;;;;0.66;100.00;98690.28;5115018;56;1139379;-78
2022/02/01 18:01:06;;;;;;;7.40;5.03;;;;;;;0.63;100.00;98660.09;5122495;55;1136954;-72
2022/02/01 18:06:12;;;;;;;12.03;6.17;;;;;;;0.64;100.00;98665.66;5124936;55;1134913;-76
2022/02/01 18:11:18;;;;;;;12.33;3.73;;;;;;;0.62;100.00;98654.98;5140831;56;1137083;-72
2022/02/01 18:16:24;;;;;;;18.80;6.97;;;;;;;0.60;100.00;98607.00;5144869;57;1137254;-75
2022/02/01 18:21:32;;;;;;;13.13;5.60;;;;;;;0.62;100.00;98617.27;5144508;57;1136989;-70
2022/02/01 18:26:38;;;;;;;26.70;12.17;;;;;;;0.63;100.00;98608.06;5150436;56;1136911;-77
2022/02/01 18:31:45;;;;;;;34.17;14.80;;;;;;;0.63;100.00;98579.45;5154969;56;1139807;-84
2022/02/01 18:36:54;;;;;;;17.67;7.80;;;;;;;0.59;100.00;98580.63;5155092;56;1139123;-68
2022/02/01 18:42:02;;;;;;;15.20;6.63;;;;;;;0.53;100.00;98566.72;5155245;56;1136917;-72
2022/02/01 18:47:10;;;;;;;14.77;6.30;;;;;;;0.49;100.00;98534.52;5154979;56;1137390;-72
2022/02/01 18:57:35;;;;;;;23.38;10.58;;;;;;;0.50;100.00;98532.28;5116914;57;1134997;-78
2022/02/01 19:03:08;;;;;;;54.90;32.17;;;;;;;0.50;100.00;98538.78;5143957;57;1137032;-74
2022/02/01 19:08:17;;;;;;;54.70;27.17;;;;;;;0.48;100.00;98528.48;5146334;56;1137172;-71
2022/02/01 19:13:11;;;;;;;70.50;40.53;;;;;;;0.47;100.00;98506.01;5143595;57;1136979;-72
2022/02/01 19:18:19;;;;;;;39.80;12.60;;;;;;;0.49;100.00;98507.20;5150376;57;1137198;-70
2022/02/01 19:23:31;;;;;;;23.10;9.57;;;;;;;0.50;100.00;98486.30;5145127;57;1137175;-79
2022/02/01 19:28:37;;;;;;;27.30;8.40;;;;;;;0.55;100.00;98481.63;5154281;57;1135212;-71
2022/02/01 19:33:49;;;;;;;14.17;6.47;;;;;;;0.57;100.00;98473.25;5154882;56;1134915;-75
2022/02/01 19:38:56;;;;;;;22.73;9.93;;;;;;;0.59;100.00;98463.58;5150832;56;1134927;-74
2022/02/01 19:44:11;;;;;;;18.53;8.03;;;;;;;0.59;100.00;98458.84;5154950;56;1134854;-71
2022/02/01 19:49:16;;;;;;;13.90;5.70;;;;;;;0.65;100.00;98453.19;5144890;56;1132696;-73
2022/02/01 19:54:22;;;;;;;39.80;13.20;;;;;;;0.65;100.00;98453.19;5145321;57;1137401;-79
2022/02/01 19:59:35;;;;;;;19.03;6.93;;;;;;;0.66;100.00;98450.48;5145950;56;1138910;-75
2022/02/01 20:04:43;;;;;;;20.53;8.30;;;;;;;0.66;100.00;98443.98;5154675;56;1136932;-75
2022/02/01 20:10:03;;;;;;;19.07;6.12;;;;;;;0.70;100.00;98438.09;5150951;56;1137219;-73
2022/02/01 20:15:00;;;;;;;95.57;39.87;;;;;;;0.71;100.00;98446.27;5116580;57;1137064;-73
2022/02/01 20:20:07;;;;;;;59.40;42.73;;;;;;;0.73;100.00;98437.89;5115796;57;1139000;-67
2022/02/01 20:25:13;;;;;;;152.77;30.33;;;;;;;0.76;100.00;98439.45;5125084;57;1139023;-74
2022/02/01 20:30:19;;;;;;;19.77;6.40;;;;;;;0.75;100.00;98436.48;5122174;57;1141171;-75
2022/02/01 20:35:25;;;;;;;14.83;6.07;;;;;;;0.78;100.00;98438.84;5110611;57;1137063;-77
2022/02/01 20:40:33;;;;;;;18.47;5.90;;;;;;;0.80;100.00;98428.69;5119921;57;1137015;-73
2022/02/01 20:45:40;;;;;;;31.97;9.43;;;;;;;0.83;100.00;98419.38;5124691;57;1136737;-72
2022/02/01 20:50:47;;;;;;;12.03;5.17;;;;;;;0.87;100.00;98409.59;5125448;57;1136958;-73
2022/02/01 20:55:52;;;;;;;29.63;7.80;;;;;;;0.89;100.00;98405.11;5123747;57;1137097;-75
2022/02/01 21:00:58;;;;;;;42.17;14.33;;;;;;;0.94;100.00;98417.30;5096369;57;1137042;-75
2022/02/01 21:06:05;;;;;;;20.27;5.30;;;;;;;0.99;100.00;98413.90;5097260;57;1139080;-73
2022/02/01 21:11:11;;;;;;;33.53;6.30;;;;;;;1.07;100.00;98408.16;5107516;57;1137231;-76
2022/02/01 21:16:16;;;;;;;17.27;5.47;;;;;;;1.15;100.00;98410.55;5145324;57;1137203;-76
2022/02/01 21:21:22;;;;;;;5.33;4.00;;;;;;;1.26;100.00;98406.69;5154355;57;1136926;-73
2022/02/01 21:26:30;;;;;;;13.60;6.23;;;;;;;1.38;100.00;98395.36;5156089;57;1134827;-73
2022/02/01 21:31:35;;;;;;;7.47;4.63;;;;;;;1.48;100.00;98391.62;5155443;57;1137093;-76
2022/02/01 21:36:42;;;;;;;9.77;4.83;;;;;;;1.55;100.00;98379.78;5155350;57;1134783;-76
2022/02/01 21:41:47;;;;;;;6.23;3.57;;;;;;;1.65;100.00;98397.70;5155805;57;1134848;-68
2022/02/01 21:46:53;;;;;;;6.50;5.03;;;;;;;1.73;100.00;98395.34;5155302;57;1135094;-68
2022/02/01 21:51:58;;;;;;;84.00;45.43;;;;;;;1.82;100.00;98396.44;5155286;57;1134885;-75
2022/02/01 21:57:05;;;;;;;23.73;11.30;;;;;;;1.90;100.00;98393.23;5155395;57;1138696;-73
2022/02/01 22:02:10;;;;;;;11.33;4.57;;;;;;;1.98;100.00;98393.02;5155183;56;1139062;-71
2022/02/01 22:07:16;;;;;;;7.47;3.67;;;;;;;2.06;100.00;98398.94;5154774;56;1136932;-75
2022/02/01 22:12:22;;;;;;;7.27;3.80;;;;;;;2.16;100.00;98393.84;5155072;56;1134869;-73
2022/02/01 22:17:28;;;;;;;14.80;3.73;;;;;;;2.22;100.00;98385.55;5154962;56;1135134;-71
2022/02/01 22:22:34;;;;;;;14.10;5.60;;;;;;;2.30;100.00;98393.59;5170179;56;1137011;-75
2022/02/01 22:27:40;;;;;;;7.65;3.47;;;;;;;2.33;100.00;98389.45;5150472;56;1136902;-75
2022/02/01 22:32:48;;;;;;;7.63;3.77;;;;;;;2.40;100.00;98388.87;5146106;56;1134704;-72
2022/02/01 22:37:53;;;;;;;10.93;3.17;;;;;;;2.46;100.00;98397.97;5145808;56;1135043;-78
2022/02/01 22:43:01;;;;;;;11.90;2.33;;;;;;;2.55;100.00;98395.97;5145284;56;1136991;-74
2022/02/01 22:48:08;;;;;;;26.00;2.77;;;;;;;2.66;100.00;98388.59;5154778;56;1136945;-75
2022/02/01 22:53:14;;;;;;;16.40;2.17;;;;;;;2.76;100.00;98394.25;5155583;56;1137260;-74
2022/02/01 22:58:20;;;;;;;9.23;2.23;;;;;;;2.87;100.00;98389.98;5155167;56;1134957;-71
2022/02/01 23:03:26;;;;;;;8.60;2.87;;;;;;;2.90;100.00;98383.20;5155133;56;1133055;-76
2022/02/01 23:08:54;;;;;;;12.83;2.70;;;;;;;2.94;100.00;98395.88;5155051;56;1133008;-76
2022/02/01 23:19:20;;;;;;;13.77;3.30;;;;;;;3.00;100.00;98395.87;5132269;55;1134755;-73
2022/02/01 23:24:26;;;;;;;15.37;4.07;;;;;;;3.06;100.00;98387.05;5174552;56;1134970;-75
2022/02/01 23:29:31;;;;;;;11.03;2.80;;;;;;;3.10;100.00;98391.55;5203324;56;1134915;-74
2022/02/01 23:40:27;;;;;;;8.58;1.75;;;;;;;3.15;100.00;98388.09;5202869;56;1132865;-81
2022/02/01 23:50:32;;;;;;;9.97;1.70;;;;;;;3.17;100.00;98386.20;5204528;56;1137020;-75
2022/02/01 23:55:43;;;;;;;17.17;2.43;;;;;;;3.20;100.00;98394.27;5211502;56;1135270;-74
